Time;durP1;ratioP1;P1;durP2;ratioP2;P2;SDS_P1;SDS_P2;PMS_P1;PMS_P2;Temp;Humidity;BMP_temperature;BMP_pressure;BME280_temperature;BME280_humidity;BME280_pressure;Samples;Min_cycle;Max_cycle;Signal;HPM_P1;HPM_P2
2021/03/16 00:01:54;;;;;;;6.05;4.53;;;9.70;64.80;;;;;;5066059;28;20081;-75
2021/03/16 00:04:20;;;;;;;5.35;4.38;;;9.70;64.80;;;;;;5065915;28;20133;-76
2021/03/16 00:07:10;;;;;;;10.30;4.50;;;9.70;64.80;;;;;;5065098;28;20162;-76
2021/03/16 00:09:36;;;;;;;6.80;4.53;;;9.70;64.80;;;;;;5064223;28;20131;-76
2021/03/16 00:12:03;;;;;;;6.50;4.40;;;9.70;64.80;;;;;;5065883;28;20383;-77
2021/03/16 00:14:29;;;;;;;8.35;4.28;;;9.70;64.90;;;;;;5065318;28;20108;-77
2021/03/16 00:16:55;;;;;;;9.90;4.82;;;9.70;64.90;;;;;;5064562;28;20107;-76
2021/03/16 00:19:21;;;;;;;6.68;4.50;;;9.70;65.00;;;;;;5064864;28;20059;-77
2021/03/16 00:21:48;;;;;;;7.43;4.10;;;9.70;65.00;;;;;;5064103;28;20119;-77
2021/03/16 00:24:14;;;;;;;5.68;3.70;;;9.70;65.10;;;;;;5065492;28;20064;-76
2021/03/16 00:26:40;;;;;;;11.45;4.82;;;9.70;65.10;;;;;;5064840;28;20056;-77
2021/03/16 00:29:06;;;;;;;10.25;4.38;;;9.70;65.20;;;;;;5065720;28;20420;-76
2021/03/16 00:31:32;;;;;;;7.03;4.90;;;9.70;65.20;;;;;;5065929;28;20029;-76
2021/03/16 00:33:58;;;;;;;5.28;4.15;;;9.70;65.20;;;;;;5065461;28;20385;-77
2021/03/16 00:36:24;;;;;;;5.28;4.78;;;9.70;65.20;;;;;;5065071;28;20025;-75
2021/03/16 00:38:50;;;;;;;6.57;4.78;;;9.70;65.20;;;;;;5063725;28;20453;-76
2021/03/16 00:41:16;;;;;;;6.20;4.93;;;9.70;65.20;;;;;;5063929;28;20062;-76
2021/03/16 00:43:42;;;;;;;5.15;4.03;;;9.70;65.20;;;;;;5065440;28;20305;-76
2021/03/16 00:46:08;;;;;;;7.65;5.38;;;9.70;65.30;;;;;;5065390;28;20052;-75
2021/03/16 00:48:34;;;;;;;5.20;3.55;;;9.70;65.30;;;;;;5064859;28;20551;-75
2021/03/16 00:51:00;;;;;;;7.15;4.53;;;9.70;65.30;;;;;;5063420;28;20020;-76
2021/03/16 00:53:27;;;;;;;7.70;4.40;;;9.70;65.30;;;;;;5063227;28;20229;-77
2021/03/16 00:55:59;;;;;;;5.78;4.57;;;9.70;65.30;;;;;;5064114;28;20063;-76
2021/03/16 00:58:27;;;;;;;7.13;4.72;;;9.70;65.40;;;;;;5046560;28;20064;-75
2021/03/16 01:00:53;;;;;;;5.88;4.43;;;9.70;65.40;;;;;;5064639;28;20344;-74
2021/03/16 01:03:19;;;;;;;7.93;4.45;;;9.70;65.40;;;;;;5064900;28;20490;-75
2021/03/16 01:05:47;;;;;;;7.38;4.38;;;9.60;65.30;;;;;;5065333;28;20086;-76
2021/03/16 01:08:14;;;;;;;5.78;4.18;;;9.60;65.30;;;;;;5061050;28;20513;-76
2021/03/16 01:10:40;;;;;;;10.82;4.88;;;9.60;65.30;;;;;;5061208;28;20225;-76
2021/03/16 01:13:06;;;;;;;4.90;3.92;;;9.60;65.40;;;;;;5065710;28;20128;-76
2021/03/16 01:15:32;;;;;;;5.13;4.10;;;9.60;65.40;;;;;;5065314;28;20090;-75
2021/03/16 01:17:59;;;;;;;5.68;4.25;;;9.60;65.40;;;;;;5047128;28;20105;-75
2021/03/16 01:20:27;;;;;;;6.93;4.13;;;9.60;65.40;;;;;;5064018;28;20040;-75
2021/03/16 01:22:54;;;;;;;5.65;4.45;;;9.60;65.40;;;;;;5064284;28;20133;-76
2021/03/16 01:25:20;;;;;;;7.18;4.72;;;9.60;65.50;;;;;;5064054;28;20028;-76
2021/03/16 01:27:46;;;;;;;5.95;4.13;;;9.60;65.50;;;;;;5063961;28;20028;-76
2021/03/16 01:30:14;;;;;;;7.10;4.90;;;9.60;65.50;;;;;;5064586;28;20032;-77
2021/03/16 01:32:40;;;;;;;5.82;4.18;;;9.60;65.50;;;;;;5063199;28;20044;-77
2021/03/16 01:35:09;;;;;;;6.63;4.70;;;9.50;65.40;;;;;;5064634;28;20494;-76
2021/03/16 01:37:39;;;;;;;10.25;4.35;;;9.50;65.40;;;;;;5064376;28;20420;-77
2021/03/16 01:40:17;;;;;;;6.65;4.38;;;9.50;65.40;;;;;;5062901;28;20089;-76
2021/03/16 01:42:44;;;;;;;6.32;4.28;;;9.50;65.50;;;;;;5068280;28;20032;-76
2021/03/16 01:45:17;;;;;;;4.88;3.80;;;9.50;65.50;;;;;;5064352;28;20082;-76
2021/03/16 01:47:48;;;;;;;5.30;4.03;;;9.50;65.60;;;;;;5063731;28;20493;-75
2021/03/16 01:50:18;;;;;;;9.27;4.82;;;9.50;65.60;;;;;;5064250;28;20256;-75
2021/03/16 01:52:45;;;;;;;6.32;3.90;;;9.50;65.60;;;;;;5064091;28;20096;-76
2021/03/16 01:55:12;;;;;;;6.05;4.57;;;9.40;65.50;;;;;;5062083;28;20101;-76
2021/03/16 01:57:40;;;;;;;6.65;4.47;;;9.50;65.70;;;;;;5063337;28;20053;-76
2021/03/16 02:00:34;;;;;;;6.20;4.35;;;9.50;65.70;;;;;;5064022;28;20637;-76
2021/03/16 02:03:18;;;;;;;6.38;4.45;;;9.40;65.60;;;;;;5064456;28;20036;-76
2021/03/16 02:06:07;;;;;;;4.45;4.00;;;9.50;65.70;;;;;;5064157;28;20116;-76
2021/03/16 02:09:05;;;;;;;4.63;4.22;;;9.40;65.50;;;;;;5066706;28;20025;-76
2021/03/16 02:12:01;;;;;;;8.13;4.18;;;9.40;65.60;;;;;;5067389;28;20059;-76
2021/03/16 02:14:55;;;;;;;9.90;4.30;;;9.50;65.70;;;;;;5067174;28;20028;-76
2021/03/16 02:17:42;;;;;;;8.10;5.13;;;9.50;65.90;;;;;;5067672;28;20124;-76
2021/03/16 02:20:34;;;;;;;5.63;3.92;;;9.50;65.70;;;;;;5067617;28;20051;-76
2021/03/16 02:23:26;;;;;;;6.28;4.97;;;9.40;65.50;;;;;;5067860;28;20044;-75
2021/03/16 02:26:27;;;;;;;7.35;4.70;;;9.40;65.50;;;;;;5066649;28;20123;-76
2021/03/16 02:29:17;;;;;;;9.23;4.80;;;9.50;65.80;;;;;;5065959;28;20063;-76
2021/03/16 02:32:13;;;;;;;6.43;4.07;;;9.50;65.70;;;;;;5062036;28;20379;-77
2021/03/16 02:35:02;;;;;;;6.07;4.55;;;9.50;65.80;;;;;;5049751;28;20029;-76
2021/03/16 02:37:48;;;;;;;8.35;4.18;;;9.50;65.70;;;;;;5048407;28;20308;-75
2021/03/16 02:40:35;;;;;;;8.55;4.30;;;9.50;65.70;;;;;;5048912;28;20439;-76
2021/03/16 02:43:21;;;;;;;8.30;4.00;;;9.40;65.60;;;;;;5049036;28;20106;-77
2021/03/16 02:46:06;;;;;;;6.55;4.38;;;9.50;65.80;;;;;;5056259;28;20017;-76
2021/03/16 02:48:53;;;;;;;6.93;4.63;;;9.50;65.80;;;;;;5060499;28;20040;-77
2021/03/16 02:51:39;;;;;;;8.98;4.30;;;9.50;65.80;;;;;;5054154;28;20120;-78
2021/03/16 02:54:25;;;;;;;6.53;4.80;;;9.50;65.90;;;;;;5072157;28;20415;-76
2021/03/16 02:57:12;;;;;;;6.82;4.53;;;9.50;65.90;;;;;;5070739;28;20529;-76
2021/03/16 03:00:01;;;;;;;9.77;4.95;;;9.50;65.90;;;;;;5072305;28;20182;-76
2021/03/16 03:02:47;;;;;;;8.48;4.43;;;9.50;65.90;;;;;;5070421;28;20484;-76
2021/03/16 03:05:34;;;;;;;7.28;4.93;;;9.50;65.90;;;;;;5071249;28;20115;-77
2021/03/16 03:08:20;;;;;;;7.07;4.45;;;9.60;66.10;;;;;;5071015;28;20051;-77
2021/03/16 03:11:04;;;;;;;7.47;4.60;;;9.50;65.90;;;;;;5070691;28;20127;-76
2021/03/16 03:13:50;;;;;;;6.40;4.55;;;9.50;65.90;;;;;;5071927;28;20444;-76
2021/03/16 03:16:34;;;;;;;7.95;4.65;;;9.50;65.90;;;;;;5071075;28;20029;-76
2021/03/16 03:19:19;;;;;;;7.85;4.53;;;9.60;66.10;;;;;;5073355;28;20113;-76
2021/03/16 03:22:25;;;;;;;7.45;4.82;;;9.50;65.90;;;;;;5071527;28;20135;-75
2021/03/16 03:25:45;;;;;;;8.25;4.63;;;9.60;66.10;;;;;;5070541;28;20028;-77
2021/03/16 03:28:32;;;;;;;7.00;4.85;;;9.60;66.10;;;;;;5071455;28;20430;-76
2021/03/16 03:31:18;;;;;;;6.10;4.50;;;9.60;66.10;;;;;;5071651;28;20107;-75
2021/03/16 03:34:03;;;;;;;8.20;4.53;;;9.50;65.90;;;;;;5071579;28;20050;-76
2021/03/16 03:36:55;;;;;;;9.23;4.63;;;9.60;66.10;;;;;;5069447;28;20029;-76
2021/03/16 03:39:41;;;;;;;7.63;4.53;;;9.60;66.10;;;;;;5060750;28;20044;-76
2021/03/16 03:42:28;;;;;;;6.47;5.63;;;9.60;66.10;;;;;;5069724;28;20516;-75
2021/03/16 03:45:13;;;;;;;6.18;4.78;;;9.60;66.10;;;;;;5071525;28;20510;-75
2021/03/16 03:48:02;;;;;;;6.78;4.13;;;9.60;66.10;;;;;;5070154;28;20044;-76
2021/03/16 03:50:51;;;;;;;7.18;4.90;;;9.60;66.20;;;;;;5070965;28;20031;-76
2021/03/16 03:53:38;;;;;;;8.10;4.70;;;9.60;66.20;;;;;;5070375;28;20033;-75
2021/03/16 03:56:23;;;;;;;5.78;4.38;;;9.60;66.20;;;;;;5069658;28;20127;-75
2021/03/16 03:59:09;;;;;;;6.70;4.70;;;9.70;66.30;;;;;;5059893;28;20044;-75
2021/03/16 04:01:55;;;;;;;7.13;3.83;;;9.70;66.40;;;;;;5070525;28;20177;-75
2021/03/16 04:04:40;;;;;;;6.10;4.68;;;9.70;66.40;;;;;;5069603;28;20116;-76
2021/03/16 04:07:27;;;;;;;7.50;5.03;;;9.70;66.40;;;;;;5070555;28;20058;-75
2021/03/16 04:10:13;;;;;;;9.57;5.50;;;9.70;66.40;;;;;;5070376;28;20059;-76
2021/03/16 04:12:58;;;;;;;7.40;4.80;;;9.70;66.40;;;;;;5070325;28;20033;-75
2021/03/16 04:15:43;;;;;;;8.32;4.97;;;9.70;66.40;;;;;;5069491;28;20115;-75
2021/03/16 04:18:28;;;;;;;8.90;5.03;;;9.70;66.40;;;;;;5069475;28;20521;-76
2021/03/16 04:21:14;;;;;;;6.47;4.88;;;9.70;66.40;;;;;;5070150;28;20039;-75
2021/03/16 04:23:58;;;;;;;7.90;4.78;;;9.70;66.40;;;;;;5068995;28;20056;-76
2021/03/16 04:26:42;;;;;;;6.80;5.55;;;9.70;66.40;;;;;;5070021;28;20150;-76
2021/03/16 04:29:27;;;;;;;7.32;4.57;;;9.80;66.60;;;;;;5068826;28;20051;-76
2021/03/16 04:32:12;;;;;;;6.55;5.00;;;9.70;66.50;;;;;;5069046;28;20025;-76
2021/03/16 04:34:56;;;;;;;7.05;5.07;;;9.80;66.70;;;;;;5069964;28;20127;-76
2021/03/16 04:37:41;;;;;;;5.75;4.97;;;9.80;66.70;;;;;;5069621;28;20055;-77
2021/03/16 04:40:25;;;;;;;8.18;5.43;;;9.80;66.70;;;;;;5069877;28;20086;-76
2021/03/16 04:43:10;;;;;;;9.63;4.72;;;9.80;66.70;;;;;;5068915;28;20456;-77
2021/03/16 04:45:55;;;;;;;7.32;5.82;;;9.80;66.70;;;;;;5069789;28;20107;-76
2021/03/16 04:48:40;;;;;;;;;;;9.80;66.70;;;;;;5069537;28;20341;-78
2021/03/16 04:51:24;;;;;;;;;;;9.80;66.70;;;;;;5097549;28;20432;-77
2021/03/16 04:54:09;;;;;;;6.50;5.15;;;9.90;66.70;;;;;;5069820;28;19909;-78
2021/03/16 04:56:54;;;;;;;8.35;5.82;;;9.80;66.40;;;;;;5070146;28;20071;-76
2021/03/16 04:59:39;;;;;;;7.78;6.03;;;9.90;66.70;;;;;;5068779;28;20079;-77
2021/03/16 05:02:24;;;;;;;7.65;6.25;;;9.90;66.70;;;;;;5069464;28;20055;-77
2021/03/16 05:05:10;;;;;;;7.65;6.07;;;9.90;66.70;;;;;;5069853;28;20040;-77
2021/03/16 05:07:54;;;;;;;6.53;5.90;;;9.90;66.80;;;;;;5068307;28;20032;-76
2021/03/16 05:10:38;;;;;;;;;;;9.90;66.80;;;;;;5070079;28;20063;-76
2021/03/16 05:13:23;;;;;;;7.88;6.28;;;9.90;66.80;;;;;;5068355;28;19908;-76
2021/03/16 05:16:09;;;;;;;7.40;5.95;;;9.90;66.70;;;;;;5069952;28;20040;-76
2021/03/16 05:18:53;;;;;;;6.68;5.90;;;9.90;66.70;;;;;;5069568;28;20085;-77
2021/03/16 05:21:38;;;;;;;6.97;5.78;;;9.90;66.80;;;;;;5069020;28;20494;-76
2021/03/16 05:24:23;;;;;;;7.38;5.60;;;9.90;66.90;;;;;;5068278;28;20392;-77
2021/03/16 05:27:08;;;;;;;6.85;5.32;;;10.00;67.10;;;;;;5069917;28;20028;-76
2021/03/16 05:29:52;;;;;;;9.10;6.10;;;10.00;67.10;;;;;;5069998;28;20025;-77
2021/03/16 05:32:38;;;;;;;7.13;5.70;;;9.90;66.90;;;;;;5068156;28;20052;-77
2021/03/16 05:35:24;;;;;;;6.45;5.25;;;10.00;67.10;;;;;;5068037;28;20056;-76
2021/03/16 05:38:08;;;;;;;6.95;6.13;;;10.00;67.20;;;;;;5068151;28;20028;-76
2021/03/16 05:40:53;;;;;;;7.13;6.38;;;10.00;67.20;;;;;;5068297;28;20044;-76
2021/03/16 05:43:39;;;;;;;8.35;6.38;;;10.00;67.20;;;;;;5100498;28;20028;-76
2021/03/16 05:46:25;;;;;;;6.93;6.13;;;10.00;67.20;;;;;;5072768;28;20079;-76
2021/03/16 05:49:10;;;;;;;7.07;6.07;;;10.00;67.20;;;;;;5056971;28;20159;-76
2021/03/16 05:51:54;;;;;;;6.47;5.45;;;10.00;67.20;;;;;;5066033;28;20474;-77
2021/03/16 05:54:39;;;;;;;6.80;6.15;;;10.00;67.20;;;;;;5064636;28;20033;-77
2021/03/16 05:57:26;;;;;;;8.38;6.60;;;10.00;67.30;;;;;;5063455;28;20045;-77
2021/03/16 06:00:11;;;;;;;7.13;6.15;;;10.10;67.50;;;;;;5053301;28;20033;-77
2021/03/16 06:02:56;;;;;;;8.30;6.50;;;10.00;67.30;;;;;;5051908;28;20047;-77
2021/03/16 06:05:41;;;;;;;9.48;6.63;;;10.00;67.30;;;;;;5095814;28;20172;-76
2021/03/16 06:08:25;;;;;;;7.50;6.68;;;10.00;67.30;;;;;;5068414;28;20067;-77
2021/03/16 06:11:11;;;;;;;8.40;6.78;;;10.00;67.30;;;;;;5066617;28;20416;-77
2021/03/16 06:13:56;;;;;;;8.10;6.78;;;10.10;67.50;;;;;;5065826;28;20551;-75
2021/03/16 06:16:40;;;;;;;8.18;7.10;;;10.10;67.60;;;;;;5048133;28;20051;-76
2021/03/16 06:19:36;;;;;;;8.43;7.28;;;10.10;67.60;;;;;;5064624;28;20040;-76
2021/03/16 06:22:21;;;;;;;6.97;6.28;;;10.10;67.70;;;;;;5063585;28;20429;-78
2021/03/16 06:25:07;;;;;;;8.98;7.05;;;10.10;67.60;;;;;;5068490;28;20024;-78
2021/03/16 06:28:03;;;;;;;9.32;7.88;;;10.10;67.60;;;;;;5068036;28;20063;-76
2021/03/16 06:30:49;;;;;;;8.75;7.85;;;10.10;67.70;;;;;;5082671;28;20042;-77
2021/03/16 06:33:34;;;;;;;10.23;8.35;;;10.10;67.60;;;;;;5074409;28;20438;-79
2021/03/16 06:36:25;;;;;;;12.23;8.48;;;10.10;67.60;;;;;;5067207;28;20072;-79
2021/03/16 06:39:22;;;;;;;10.60;8.25;;;10.10;67.70;;;;;;5067058;28;20429;-79
2021/03/16 06:42:06;;;;;;;10.30;8.23;;;10.10;67.70;;;;;;5076064;28;20060;-76
2021/03/16 06:45:03;;;;;;;13.77;9.05;;;10.20;67.80;;;;;;5067683;28;20032;-79
2021/03/16 06:47:49;;;;;;;11.93;8.27;;;10.20;67.90;;;;;;5067996;28;20031;-77
2021/03/16 06:50:34;;;;;;;10.20;7.57;;;10.20;67.90;;;;;;5059482;28;20577;-78
2021/03/16 06:53:21;;;;;;;13.35;9.05;;;10.20;67.90;;;;;;5086850;28;20067;-78
2021/03/16 06:56:06;;;;;;;15.50;9.20;;;10.30;68.40;;;;;;5060810;28;20072;-78
2021/03/16 06:58:51;;;;;;;13.13;9.77;;;10.30;68.60;;;;;;5056214;28;20449;-78
2021/03/16 07:01:35;;;;;;;11.82;9.45;;;10.30;68.70;;;;;;5065277;28;20024;-79
2021/03/16 07:04:26;;;;;;;12.93;9.90;;;10.40;68.90;;;;;;5066358;28;20040;-79
2021/03/16 07:07:11;;;;;;;12.82;10.55;;;10.40;69.00;;;;;;5068089;28;20136;-78
2021/03/16 07:10:00;;;;;;;13.57;10.93;;;10.50;69.20;;;;;;5069306;28;20035;-78
2021/03/16 07:12:47;;;;;;;13.55;10.57;;;10.50;69.10;;;;;;5073413;28;20115;-77
2021/03/16 07:15:32;;;;;;;20.90;13.07;;;10.60;69.40;;;;;;5083913;28;20028;-83
2021/03/16 07:18:21;;;;;;;17.50;13.90;;;10.60;69.30;;;;;;5082754;28;20124;-80
2021/03/16 07:21:13;;;;;;;23.13;16.70;;;10.60;69.60;;;;;;5064834;28;20403;-76
2021/03/16 07:24:01;;;;;;;23.48;15.88;;;10.70;70.30;;;;;;5059119;28;20025;-79
2021/03/16 07:26:46;;;;;;;20.27;15.60;;;10.80;70.60;;;;;;5064619;28;20513;-78
2021/03/16 07:29:32;;;;;;;19.52;15.52;;;10.90;70.90;;;;;;5070701;28;20097;-76
2021/03/16 07:32:17;;;;;;;20.40;14.48;;;11.00;71.20;;;;;;5081406;28;20032;-76
2021/03/16 07:35:03;;;;;;;21.85;17.13;;;11.10;71.50;;;;;;5063119;28;20088;-76
2021/03/16 07:37:48;;;;;;;19.80;15.40;;;11.20;71.70;;;;;;5049251;28;20039;-78
2021/03/16 07:40:33;;;;;;;27.65;16.45;;;11.20;71.90;;;;;;5062414;28;20049;-76
2021/03/16 07:43:18;;;;;;;20.73;15.63;;;11.30;72.20;;;;;;5063264;28;20033;-77
2021/03/16 07:46:19;;;;;;;21.30;16.95;;;11.30;72.30;;;;;;5073513;28;20173;-77
2021/03/16 07:49:04;;;;;;;20.38;15.65;;;11.40;72.80;;;;;;5072523;28;20039;-78
2021/03/16 07:51:48;;;;;;;18.00;15.32;;;11.40;72.60;;;;;;5065693;28;20126;-77
2021/03/16 07:54:36;;;;;;;21.23;15.32;;;11.40;72.70;;;;;;5044760;28;20084;-77
2021/03/16 07:57:27;;;;;;;22.45;16.13;;;11.50;73.00;;;;;;5046334;28;20079;-78
2021/03/16 08:00:14;;;;;;;17.90;14.07;;;11.60;73.40;;;;;;5046561;28;20122;-78
2021/03/16 08:03:00;;;;;;;24.13;15.38;;;11.60;73.30;;;;;;5081742;28;20055;-79
2021/03/16 08:05:45;;;;;;;20.27;14.48;;;11.70;73.60;;;;;;5065534;28;20092;-77
2021/03/16 08:08:40;;;;;;;19.98;14.02;;;11.70;73.60;;;;;;5064793;28;20120;-78
2021/03/16 08:11:42;;;;;;;18.98;14.32;;;11.80;74.00;;;;;;5064973;28;20365;-78
2021/03/16 08:14:29;;;;;;;18.27;13.82;;;11.80;74.10;;;;;;5044844;28;20040;-77
2021/03/16 08:17:35;;;;;;;20.92;14.63;;;11.90;74.10;;;;;;5077952;28;20067;-78
2021/03/16 08:20:26;;;;;;;19.38;14.98;;;11.90;74.30;;;;;;5060346;28;20207;-80
2021/03/16 08:23:12;;;;;;;18.75;13.68;;;12.00;74.40;;;;;;5069354;28;20028;-81
2021/03/16 08:25:57;;;;;;;16.10;13.55;;;12.00;74.30;;;;;;5067817;28;20082;-77
2021/03/16 08:28:47;;;;;;;21.10;14.18;;;12.10;74.80;;;;;;5065343;28;20032;-78
2021/03/16 08:31:34;;;;;;;23.15;13.38;;;12.20;75.00;;;;;;5064943;28;20136;-78
2021/03/16 08:34:22;;;;;;;15.43;13.80;;;12.20;74.80;;;;;;5064018;28;20062;-80
2021/03/16 08:37:06;;;;;;;16.65;13.25;;;12.30;75.00;;;;;;5064963;28;20032;-79
2021/03/16 08:39:53;;;;;;;20.63;15.20;;;12.30;74.90;;;;;;5066593;28;20105;-83
2021/03/16 08:42:37;;;;;;;18.23;15.05;;;12.30;74.80;;;;;;5066029;28;20116;-84
2021/03/16 08:45:32;;;;;;;19.85;15.25;;;12.30;74.80;;;;;;5065151;28;20583;-80
2021/03/16 08:48:33;;;;;;;16.58;13.85;;;12.30;74.80;;;;;;5067010;28;20108;-80
2021/03/16 08:51:22;;;;;;;19.00;15.45;;;12.40;74.90;;;;;;5064603;28;20353;-82
2021/03/16 08:54:07;;;;;;;17.42;13.95;;;12.40;74.80;;;;;;5065183;28;20028;-79
2021/03/16 08:56:52;;;;;;;17.83;16.00;;;12.40;74.70;;;;;;5065758;28;20040;-79
2021/03/16 08:59:38;;;;;;;19.08;15.13;;;12.40;74.60;;;;;;5065123;28;20040;-81
2021/03/16 09:02:28;;;;;;;19.98;14.95;;;12.40;74.70;;;;;;5064268;28;20035;-80
2021/03/16 09:05:25;;;;;;;20.58;14.48;;;12.40;74.60;;;;;;5065401;28;20032;-78
2021/03/16 09:08:10;;;;;;;14.98;12.38;;;12.40;74.60;;;;;;5064110;28;20035;-78
2021/03/16 09:10:54;;;;;;;17.92;14.43;;;12.50;74.70;;;;;;5069360;28;20036;-76
2021/03/16 09:13:39;;;;;;;16.85;14.20;;;12.50;74.60;;;;;;5069853;28;20025;-80
2021/03/16 09:16:24;;;;;;;18.70;15.00;;;12.60;74.80;;;;;;5065626;28;20036;-78
2021/03/16 09:19:12;;;;;;;16.08;14.18;;;12.70;74.90;;;;;;5062668;28;20040;-78
2021/03/16 09:22:01;;;;;;;15.60;13.60;;;12.80;74.90;;;;;;5065811;28;20033;-81
2021/03/16 09:24:45;;;;;;;14.70;13.15;;;12.90;75.00;;;;;;5044830;28;20021;-78
2021/03/16 09:27:30;;;;;;;17.33;14.30;;;13.00;74.90;;;;;;5044787;28;20112;-81
2021/03/16 09:30:17;;;;;;;16.02;13.60;;;13.10;74.80;;;;;;5065091;28;20480;-78
2021/03/16 09:33:03;;;;;;;15.20;13.63;;;13.20;74.80;;;;;;5063897;28;20025;-78
2021/03/16 09:35:58;;;;;;;17.63;14.00;;;13.30;74.70;;;;;;5064542;28;20215;-79
2021/03/16 09:38:56;;;;;;;14.98;11.80;;;13.40;74.80;;;;;;5067124;28;20062;-78
2021/03/16 09:41:33;;;;;;;13.63;12.23;;;13.50;74.80;;;;;;5068049;28;20037;-78
2021/03/16 09:43:59;;;;;;;15.23;13.68;;;13.60;74.70;;;;;;5063748;28;20040;-79
2021/03/16 09:46:25;;;;;;;14.60;13.05;;;13.60;74.60;;;;;;5046362;28;20055;-78
2021/03/16 09:48:55;;;;;;;13.88;12.45;;;13.70;74.60;;;;;;5063224;28;20127;-79
2021/03/16 09:51:26;;;;;;;16.40;13.57;;;13.80;74.60;;;;;;5064592;28;20089;-78
2021/03/16 09:53:56;;;;;;;18.02;13.85;;;13.80;74.50;;;;;;5064374;28;20108;-80
2021/03/16 09:56:30;;;;;;;16.00;13.30;;;13.90;74.60;;;;;;5063364;28;20087;-78
2021/03/16 09:59:02;;;;;;;15.70;13.30;;;14.00;74.70;;;;;;5063354;28;20043;-78
2021/03/16 10:01:29;;;;;;;14.70;13.18;;;14.00;74.50;;;;;;5063072;28;20635;-78
2021/03/16 10:04:02;;;;;;;16.73;14.00;;;14.10;74.50;;;;;;5064576;28;20052;-79
2021/03/16 10:06:36;;;;;;;16.13;13.60;;;14.20;74.50;;;;;;5063020;28;20056;-80
2021/03/16 10:09:16;;;;;;;18.48;12.90;;;14.30;74.60;;;;;;5046892;28;20376;-77
2021/03/16 10:11:42;;;;;;;15.48;13.13;;;14.30;74.40;;;;;;5067353;28;20058;-79
2021/03/16 10:14:09;;;;;;;14.32;12.93;;;14.40;74.40;;;;;;5063950;28;20098;-78
2021/03/16 10:16:35;;;;;;;15.75;13.23;;;14.50;74.40;;;;;;5064265;28;20128;-78
2021/03/16 10:19:01;;;;;;;15.25;13.25;;;14.50;74.30;;;;;;5063025;28;20055;-78
2021/03/16 10:21:29;;;;;;;14.68;13.18;;;14.50;74.20;;;;;;5063966;28;20024;-78
2021/03/16 10:23:57;;;;;;;14.38;12.98;;;14.60;74.40;;;;;;5064129;28;20146;-78
2021/03/16 10:26:23;;;;;;;15.40;13.02;;;14.70;74.40;;;;;;5064142;28;20518;-78
2021/03/16 10:28:49;;;;;;;14.13;12.65;;;14.80;74.50;;;;;;5065435;28;20366;-79
2021/03/16 10:31:26;;;;;;;14.10;12.65;;;14.90;74.60;;;;;;5067652;28;20078;-77
2021/03/16 10:33:53;;;;;;;12.35;11.25;;;15.00;74.50;;;;;;5067719;28;20340;-79
2021/03/16 10:36:21;;;;;;;14.82;12.15;;;15.20;74.60;;;;;;5067730;28;20059;-80
2021/03/16 10:38:48;;;;;;;14.15;12.23;;;15.30;74.60;;;;;;5066040;28;20444;-77
2021/03/16 10:41:16;;;;;;;14.52;11.85;;;15.50;74.70;;;;;;5067640;28;20570;-77
2021/03/16 10:43:42;;;;;;;15.20;12.23;;;15.60;74.60;;;;;;5067909;28;20025;-77
2021/03/16 10:46:08;;;;;;;15.70;11.90;;;15.80;74.70;;;;;;5068662;28;20185;-77
2021/03/16 10:48:34;;;;;;;13.00;11.35;;;15.90;74.60;;;;;;5068362;28;20507;-78
2021/03/16 10:51:00;;;;;;;14.77;12.60;;;16.00;74.50;;;;;;5067288;28;20060;-77
2021/03/16 10:53:26;;;;;;;11.35;10.18;;;16.10;74.50;;;;;;5066198;28;20418;-77
2021/03/16 10:55:52;;;;;;;13.13;10.90;;;16.20;74.40;;;;;;5067497;28;20062;-77
2021/03/16 10:58:18;;;;;;;11.18;10.13;;;16.30;74.30;;;;;;5064803;28;20052;-77
2021/03/16 11:00:44;;;;;;;11.52;10.38;;;16.40;74.20;;;;;;5049824;28;20032;-78
2021/03/16 11:03:10;;;;;;;10.13;9.10;;;16.50;74.10;;;;;;5069597;28;20033;-78
2021/03/16 11:05:36;;;;;;;10.77;8.50;;;16.50;73.90;;;;;;5065600;28;20028;-78
2021/03/16 11:08:03;;;;;;;9.23;8.43;;;16.60;73.90;;;;;;5066607;28;20032;-78
2021/03/16 11:10:29;;;;;;;8.68;7.88;;;16.60;73.90;;;;;;5071609;28;20033;-78
2021/03/16 11:12:55;;;;;;;10.38;9.02;;;16.60;73.80;;;;;;5077859;28;20035;-78
2021/03/16 11:15:22;;;;;;;9.02;8.18;;;16.60;73.80;;;;;;5050659;28;20028;-81
2021/03/16 11:17:48;;;;;;;14.50;9.02;;;16.70;74.10;;;;;;5032981;28;20036;-78
2021/03/16 11:20:15;;;;;;;9.88;8.88;;;16.80;74.10;;;;;;5065711;28;20033;-78
2021/03/16 11:22:42;;;;;;;10.38;8.93;;;16.90;74.00;;;;;;5065464;28;20025;-79
2021/03/16 11:25:08;;;;;;;9.85;8.73;;;17.00;73.90;;;;;;5049196;28;20040;-79
2021/03/16 11:27:34;;;;;;;9.05;8.15;;;17.10;73.80;;;;;;5049538;28;20036;-79
2021/03/16 11:30:03;;;;;;;10.25;8.30;;;17.10;73.60;;;;;;5067532;28;20070;-79
2021/03/16 11:32:30;;;;;;;9.23;8.25;;;17.10;73.50;;;;;;5070060;28;20095;-79
2021/03/16 11:35:14;;;;;;;8.93;7.97;;;17.10;73.50;;;;;;5071260;28;20506;-79
2021/03/16 11:37:59;;;;;;;9.85;7.95;;;17.00;73.30;;;;;;5069649;28;20110;-79
2021/03/16 11:40:44;;;;;;;8.60;7.50;;;17.00;73.30;;;;;;5064848;28;20063;-78
2021/03/16 11:43:29;;;;;;;8.70;7.47;;;17.00;73.30;;;;;;5068266;28;20066;-79
2021/03/16 11:46:13;;;;;;;8.43;7.63;;;16.90;73.20;;;;;;5067624;28;20598;-79
2021/03/16 11:48:58;;;;;;;8.40;7.53;;;16.90;73.20;;;;;;5065423;28;20054;-78
2021/03/16 11:51:43;;;;;;;9.70;7.72;;;16.90;73.20;;;;;;5066151;28;20025;-78
2021/03/16 11:54:28;;;;;;;8.27;7.40;;;16.80;73.00;;;;;;5066349;28;20035;-79
2021/03/16 11:57:12;;;;;;;8.23;7.40;;;16.80;73.00;;;;;;5066224;28;20459;-79
2021/03/16 11:59:57;;;;;;;9.00;7.40;;;16.80;73.40;;;;;;5065356;28;20047;-78
2021/03/16 12:02:41;;;;;;;8.43;7.53;;;16.70;72.90;;;;;;5064608;28;20066;-78
2021/03/16 12:05:26;;;;;;;7.60;6.90;;;16.70;73.00;;;;;;5065332;28;20366;-79
2021/03/16 12:08:11;;;;;;;8.38;7.03;;;16.80;73.20;;;;;;5064355;28;20024;-79
2021/03/16 12:10:56;;;;;;;7.95;6.78;;;16.90;73.30;;;;;;5065833;28;20025;-79
2021/03/16 12:13:41;;;;;;;7.50;6.82;;;17.00;73.20;;;;;;5065104;28;20105;-78
2021/03/16 12:16:25;;;;;;;8.45;5.95;;;17.20;73.30;;;;;;5074544;28;20428;-80
2021/03/16 12:19:09;;;;;;;11.05;7.22;;;17.40;73.50;;;;;;5071014;28;20048;-80
2021/03/16 12:21:54;;;;;;;;;;;17.60;73.60;;;;;;5064166;28;20387;-79
2021/03/16 12:24:38;;;;;;;8.73;7.85;;;17.80;73.70;;;;;;5052280;28;20174;-79
2021/03/16 12:27:23;;;;;;;10.02;6.97;;;18.00;73.60;;;;;;5059167;28;20073;-78
2021/03/16 12:30:08;;;;;;;10.13;7.15;;;18.10;73.50;;;;;;5045437;28;20123;-78
2021/03/16 12:32:53;;;;;;;8.65;7.60;;;18.30;73.70;;;;;;5050171;28;20127;-77
2021/03/16 12:35:39;;;;;;;11.93;7.55;;;18.50;73.80;;;;;;5065101;28;20526;-78
2021/03/16 12:38:24;;;;;;;8.23;6.40;;;18.60;73.70;;;;;;5067923;28;20037;-77
2021/03/16 12:41:09;;;;;;;9.93;6.82;;;18.70;73.50;;;;;;5064316;28;20090;-77
2021/03/16 12:43:53;;;;;;;10.30;7.47;;;18.80;73.50;;;;;;5063679;28;20159;-78
2021/03/16 12:46:37;;;;;;;7.22;6.43;;;18.90;73.50;;;;;;5064250;28;20485;-78
2021/03/16 12:49:22;;;;;;;8.40;6.05;;;19.00;73.40;;;;;;5065035;28;20380;-79
2021/03/16 12:52:07;;;;;;;9.82;6.22;;;19.10;73.40;;;;;;5064068;28;20112;-79
2021/03/16 12:54:51;;;;;;;11.05;7.13;;;19.20;73.30;;;;;;5043642;28;20047;-78
2021/03/16 12:57:36;;;;;;;10.45;5.95;;;19.30;73.30;;;;;;5044755;28;20079;-78
2021/03/16 13:00:21;;;;;;;9.23;6.50;;;19.40;73.30;;;;;;5064608;28;20036;-78
2021/03/16 13:03:06;;;;;;;7.15;5.70;;;19.50;73.30;;;;;;5063187;28;20029;-77
2021/03/16 13:05:51;;;;;;;8.88;5.40;;;19.60;73.30;;;;;;5064491;28;20094;-76
2021/03/16 13:08:36;;;;;;;7.40;5.68;;;19.60;73.10;;;;;;5064411;28;20025;-77
2021/03/16 13:11:20;;;;;;;7.53;6.07;;;19.80;73.20;;;;;;5062935;28;20024;-77
2021/03/16 13:14:05;;;;;;;7.82;5.45;;;19.80;73.00;;;;;;5063227;28;20583;-79
2021/03/16 13:16:50;;;;;;;7.18;5.78;;;19.80;72.90;;;;;;5065167;28;20029;-78
2021/03/16 13:19:35;;;;;;;10.15;5.60;;;19.80;72.90;;;;;;5074189;28;20096;-78
2021/03/16 13:22:19;;;;;;;7.28;5.00;;;19.90;72.90;;;;;;5083100;28;20034;-78
2021/03/16 13:25:04;;;;;;;8.20;5.35;;;19.90;72.80;;;;;;5063625;28;20063;-78
2021/03/16 13:27:49;;;;;;;7.82;5.63;;;20.00;72.80;;;;;;5065084;28;20468;-79
2021/03/16 13:30:33;;;;;;;6.70;4.65;;;20.00;72.70;;;;;;5063531;28;20029;-78
2021/03/16 13:33:18;;;;;;;10.00;5.13;;;20.10;72.70;;;;;;5064321;28;20071;-78
2021/03/16 13:36:03;;;;;;;6.10;4.75;;;20.10;72.50;;;;;;5048463;28;20029;-78
2021/03/16 13:38:49;;;;;;;6.90;4.70;;;20.10;72.40;;;;;;5062258;28;20109;-78
2021/03/16 13:41:33;;;;;;;6.70;5.22;;;20.00;72.20;;;;;;5064091;28;20036;-77
2021/03/16 13:44:18;;;;;;;6.93;4.90;;;20.00;72.20;;;;;;5062796;28;20051;-78
2021/03/16 13:47:03;;;;;;;6.15;4.07;;;19.90;72.10;;;;;;5063505;28;20127;-77
2021/03/16 13:49:49;;;;;;;6.97;4.55;;;19.90;72.10;;;;;;5063173;28;20064;-77
2021/03/16 13:52:34;;;;;;;7.30;4.28;;;19.90;72.00;;;;;;5062284;28;20032;-77
2021/03/16 13:55:18;;;;;;;7.70;4.32;;;19.80;71.80;;;;;;5062466;28;20032;-78
2021/03/16 13:58:03;;;;;;;7.75;5.20;;;19.90;71.90;;;;;;5062928;28;20373;-78